Time;durP1;ratioP1;P1;durP2;ratioP2;P2;SDS_P1;SDS_P2;PMS_P1;PMS_P2;Temp;Humidity;BMP_temperature;BMP_pressure;BME280_temperature;BME280_humidity;BME280_pressure;Samples;Min_cycle;Max_cycle;Signal;HPM_P1;HPM_P2
2022/09/16 00:02:06;;;;;;;3.95;0.80;;;;;;;;;;4788133;30;20091;-68
2022/09/16 00:04:32;;;;;;;2.90;0.88;;;;;;;;;;4788377;30;20027;-68
2022/09/16 00:06:59;;;;;;;1.70;0.90;;;;;;;;;;4788313;30;20036;-68
2022/09/16 00:09:25;;;;;;;2.95;0.90;;;;;;;;;;4788179;30;20030;-67
2022/09/16 00:11:51;;;;;;;2.45;0.98;;;;;;;;;;4787678;30;20043;-67
2022/09/16 00:14:18;;;;;;;2.30;0.90;;;;;;;;;;4787504;30;20076;-68
2022/09/16 00:16:44;;;;;;;3.92;0.80;;;;;;;;;;4787936;30;20032;-68
2022/09/16 00:19:12;;;;;;;2.67;0.80;;;;;;;;;;4787887;30;20047;-68
2022/09/16 00:21:38;;;;;;;4.05;1.05;;;;;;;;;;4787917;30;20092;-68
2022/09/16 00:24:05;;;;;;;6.50;1.05;;;;;;;;;;4787803;29;20111;-68
2022/09/16 00:26:33;;;;;;;2.15;0.98;;;;;;;;;;4787623;29;20034;-68
2022/09/16 00:28:59;;;;;;;2.47;0.80;;;;;;;;;;4787637;30;20027;-68
2022/09/16 00:31:26;;;;;;;3.08;1.02;;;;;;;;;;4787730;30;20025;-68
2022/09/16 00:33:52;;;;;;;2.50;0.60;;;;;;;;;;4787708;30;20043;-68
2022/09/16 00:36:19;;;;;;;1.40;0.93;;;;;;;;;;4787513;30;20031;-68
2022/09/16 00:38:45;;;;;;;1.88;1.05;;;;;;;;;;4786814;29;20035;-68
2022/09/16 00:41:16;;;;;;;2.25;0.80;;;;;;;;;;4786796;30;20041;-68
2022/09/16 00:44:02;;;;;;;3.80;0.90;;;;;;;;;;4787399;30;20103;-68
2022/09/16 00:46:32;;;;;;;1.60;1.10;;;;;;;;;;4787462;30;20042;-68
2022/09/16 00:49:01;;;;;;;1.70;0.85;;;;;;;;;;4787313;29;20027;-68
2022/09/16 00:51:28;;;;;;;4.95;0.88;;;;;;;;;;4787531;29;20127;-67
2022/09/16 00:53:56;;;;;;;2.60;0.93;;;;;;;;;;4787520;30;20027;-68
2022/09/16 00:56:24;;;;;;;2.42;1.00;;;;;;;;;;4787619;30;20035;-68
2022/09/16 00:59:01;;;;;;;2.72;0.95;;;;;;;;;;4787292;30;20023;-68
2022/09/16 01:01:28;;;;;;;1.65;1.10;;;;;;;;;;4787197;30;20378;-68
2022/09/16 01:03:56;;;;;;;3.65;0.95;;;;;;;;;;4787193;29;20027;-68
2022/09/16 01:06:23;;;;;;;4.10;1.40;;;;;;;;;;4787506;30;20092;-68
2022/09/16 01:08:50;;;;;;;1.13;0.80;;;;;;;;;;4787090;30;20039;-67
2022/09/16 01:11:16;;;;;;;2.33;0.90;;;;;;;;;;4787282;30;20024;-68
2022/09/16 01:13:44;;;;;;;1.42;0.90;;;;;;;;;;4786659;30;20094;-68
2022/09/16 01:16:13;;;;;;;1.77;1.00;;;;;;;;;;4787377;30;20045;-68
2022/09/16 01:18:42;;;;;;;1.00;0.65;;;;;;;;;;4787073;30;20393;-68
2022/09/16 01:21:27;;;;;;;3.30;1.50;;;;;;;;;;4771075;30;20039;-68
2022/09/16 01:23:54;;;;;;;2.70;0.80;;;;;;;;;;4787032;30;20023;-68
2022/09/16 01:26:26;;;;;;;3.63;0.95;;;;;;;;;;4786549;30;20043;-67
2022/09/16 01:29:01;;;;;;;5.45;1.00;;;;;;;;;;4787323;30;20038;-68
2022/09/16 01:31:46;;;;;;;1.42;1.00;;;;;;;;;;4785775;29;20046;-68
2022/09/16 01:34:19;;;;;;;1.98;0.98;;;;;;;;;;4786950;30;20033;-68
2022/09/16 01:36:52;;;;;;;2.63;1.10;;;;;;;;;;4786895;29;20042;-68
2022/09/16 01:39:31;;;;;;;1.75;0.88;;;;;;;;;;4786974;29;20039;-68
2022/09/16 01:42:07;;;;;;;2.55;1.13;;;;;;;;;;4786611;29;20051;-68
2022/09/16 01:44:39;;;;;;;5.25;1.10;;;;;;;;;;4786796;30;20042;-68
2022/09/16 01:47:05;;;;;;;6.05;1.00;;;;;;;;;;4787005;30;20031;-68
2022/09/16 01:49:34;;;;;;;3.00;0.80;;;;;;;;;;4786768;30;20016;-68
2022/09/16 01:52:18;;;;;;;3.83;0.90;;;;;;;;;;4787081;29;20502;-68
2022/09/16 01:54:55;;;;;;;3.58;1.00;;;;;;;;;;4790374;29;20027;-67
2022/09/16 01:57:42;;;;;;;1.67;1.02;;;;;;;;;;4790253;30;20045;-68
2022/09/16 02:00:10;;;;;;;2.10;1.00;;;;;;;;;;4770110;30;20044;-68
2022/09/16 02:02:58;;;;;;;2.05;1.00;;;;;;;;;;4755371;30;20044;-68
2022/09/16 02:05:27;;;;;;;3.83;0.90;;;;;;;;;;4770141;30;20066;-68
2022/09/16 02:08:02;;;;;;;1.77;1.15;;;;;;;;;;4770154;30;20458;-68
2022/09/16 02:10:34;;;;;;;1.92;0.70;;;;;;;;;;4769656;30;20047;-69
2022/09/16 02:13:21;;;;;;;3.28;0.90;;;;;;;;;;4769859;30;20066;-68
2022/09/16 02:15:49;;;;;;;2.72;1.02;;;;;;;;;;4770023;30;20535;-68
2022/09/16 02:18:18;;;;;;;2.65;1.00;;;;;;;;;;4769899;30;20050;-68
2022/09/16 02:20:46;;;;;;;4.00;0.93;;;;;;;;;;4769842;30;20039;-68
2022/09/16 02:23:17;;;;;;;1.98;1.10;;;;;;;;;;4769775;30;20039;-68
2022/09/16 02:25:46;;;;;;;1.48;1.20;;;;;;;;;;4769246;30;20051;-68
2022/09/16 02:28:15;;;;;;;2.10;0.80;;;;;;;;;;4769901;30;20028;-67
2022/09/16 02:30:43;;;;;;;2.00;0.77;;;;;;;;;;4769728;30;20040;-68
2022/09/16 02:33:10;;;;;;;3.85;0.98;;;;;;;;;;4769807;30;20028;-68
2022/09/16 02:35:38;;;;;;;1.35;0.82;;;;;;;;;;4769603;30;20284;-68
2022/09/16 02:38:07;;;;;;;5.85;1.00;;;;;;;;;;4786517;30;20051;-68
2022/09/16 02:40:36;;;;;;;4.32;1.05;;;;;;;;;;4789502;29;20721;-68
2022/09/16 02:43:03;;;;;;;1.23;0.90;;;;;;;;;;4789544;29;20030;-68
2022/09/16 02:45:35;;;;;;;1.30;0.90;;;;;;;;;;4789559;30;20512;-67
2022/09/16 02:48:12;;;;;;;4.35;1.05;;;;;;;;;;4789663;30;20063;-68
2022/09/16 02:50:41;;;;;;;1.88;0.93;;;;;;;;;;4789278;30;20041;-68
2022/09/16 02:53:07;;;;;;;3.03;1.33;;;;;;;;;;4789751;30;20041;-68
2022/09/16 02:55:50;;;;;;;2.88;1.23;;;;;;;;;;4789104;30;20035;-68
2022/09/16 02:58:16;;;;;;;2.03;0.95;;;;;;;;;;4789269;29;20040;-68
2022/09/16 03:00:45;;;;;;;1.83;1.08;;;;;;;;;;4789576;30;20067;-68
2022/09/16 03:03:12;;;;;;;2.67;1.00;;;;;;;;;;4789311;30;20039;-68
2022/09/16 03:05:58;;;;;;;2.67;1.30;;;;;;;;;;4788418;29;20092;-68
2022/09/16 03:08:24;;;;;;;4.70;1.15;;;;;;;;;;4789010;29;20039;-68
2022/09/16 03:10:52;;;;;;;1.88;1.02;;;;;;;;;;4789142;30;20504;-68
2022/09/16 03:13:27;;;;;;;2.97;1.15;;;;;;;;;;4788843;29;20047;-68
2022/09/16 03:16:29;;;;;;;1.67;0.88;;;;;;;;;;4789082;30;20051;-68
2022/09/16 03:19:16;;;;;;;3.15;0.85;;;;;;;;;;4769163;30;20032;-68
2022/09/16 03:21:45;;;;;;;3.20;1.10;;;;;;;;;;4768755;30;20048;-68
2022/09/16 03:24:14;;;;;;;3.03;1.15;;;;;;;;;;4768560;30;20627;-68
2022/09/16 03:26:59;;;;;;;2.22;1.05;;;;;;;;;;4753945;30;20055;-68
2022/09/16 03:29:31;;;;;;;2.03;0.93;;;;;;;;;;4768870;30;20042;-68
2022/09/16 03:32:02;;;;;;;2.08;1.20;;;;;;;;;;4768720;30;20425;-68
2022/09/16 03:34:37;;;;;;;3.75;1.33;;;;;;;;;;4768692;30;20046;-68
2022/09/16 03:37:06;;;;;;;3.22;1.27;;;;;;;;;;4768146;30;20038;-68
2022/09/16 03:39:33;;;;;;;2.67;1.15;;;;;;;;;;4768615;30;20039;-68
2022/09/16 03:42:04;;;;;;;2.42;1.00;;;;;;;;;;4768573;30;20572;-68
2022/09/16 03:44:31;;;;;;;1.63;1.00;;;;;;;;;;4768399;30;20048;-68
2022/09/16 03:46:58;;;;;;;4.10;1.33;;;;;;;;;;4768450;30;20043;-68
2022/09/16 03:49:24;;;;;;;1.55;1.00;;;;;;;;;;4768486;30;20044;-68
2022/09/16 03:51:50;;;;;;;4.10;1.15;;;;;;;;;;4769345;30;20042;-67
2022/09/16 03:54:17;;;;;;;3.03;1.10;;;;;;;;;;4788327;30;20490;-68
2022/09/16 03:56:43;;;;;;;3.05;1.45;;;;;;;;;;4788551;30;20035;-68
2022/09/16 03:59:09;;;;;;;5.72;1.30;;;;;;;;;;4788254;30;20512;-68
2022/09/16 04:01:36;;;;;;;2.45;1.17;;;;;;;;;;4788098;30;20039;-68
2022/09/16 04:04:02;;;;;;;4.85;1.02;;;;;;;;;;4788170;30;20034;-69
2022/09/16 04:06:29;;;;;;;1.90;1.20;;;;;;;;;;4788011;30;20039;-68
2022/09/16 04:08:59;;;;;;;3.75;1.00;;;;;;;;;;4788108;30;20024;-68
2022/09/16 04:11:28;;;;;;;2.22;1.25;;;;;;;;;;4788064;30;20485;-68
2022/09/16 04:13:55;;;;;;;2.40;1.10;;;;;;;;;;4787802;30;20526;-68
2022/09/16 04:16:21;;;;;;;1.83;0.98;;;;;;;;;;4787078;29;20554;-68
2022/09/16 04:18:48;;;;;;;3.08;1.00;;;;;;;;;;4787885;30;20065;-68
2022/09/16 04:21:14;;;;;;;3.20;1.00;;;;;;;;;;4786563;29;20035;-68
2022/09/16 04:23:41;;;;;;;4.05;1.20;;;;;;;;;;4787809;30;20516;-68
2022/09/16 04:26:07;;;;;;;5.82;1.38;;;;;;;;;;4787666;30;20031;-68
2022/09/16 04:28:33;;;;;;;4.53;1.40;;;;;;;;;;4787774;30;20504;-68
2022/09/16 04:31:01;;;;;;;3.55;1.52;;;;;;;;;;4787638;30;20516;-68
2022/09/16 04:33:31;;;;;;;4.90;1.30;;;;;;;;;;4787785;29;20037;-67
2022/09/16 04:36:11;;;;;;;2.57;1.17;;;;;;;;;;4787602;30;20049;-68
2022/09/16 04:38:38;;;;;;;2.13;1.30;;;;;;;;;;4787841;29;20281;-68
2022/09/16 04:41:06;;;;;;;4.15;1.50;;;;;;;;;;4787630;29;20035;-68
2022/09/16 04:43:32;;;;;;;2.80;1.08;;;;;;;;;;4787551;30;20037;-68
2022/09/16 04:45:59;;;;;;;3.97;1.10;;;;;;;;;;4787560;30;20099;-68
2022/09/16 04:48:25;;;;;;;4.60;1.35;;;;;;;;;;4787434;30;20024;-68
2022/09/16 04:50:52;;;;;;;4.85;1.00;;;;;;;;;;4787019;29;20056;-68
2022/09/16 04:53:19;;;;;;;1.55;1.20;;;;;;;;;;4787443;29;20023;-68
2022/09/16 04:55:46;;;;;;;2.13;1.30;;;;;;;;;;4786434;29;20035;-68
2022/09/16 04:58:13;;;;;;;2.55;1.30;;;;;;;;;;4787480;30;20025;-68
2022/09/16 05:00:40;;;;;;;2.70;1.30;;;;;;;;;;4787190;30;20050;-68
2022/09/16 05:03:06;;;;;;;6.53;1.60;;;;;;;;;;4787139;30;20023;-68
2022/09/16 05:05:33;;;;;;;4.05;1.48;;;;;;;;;;4786959;30;20046;-68
2022/09/16 05:07:59;;;;;;;4.72;1.23;;;;;;;;;;4787260;30;20401;-68
2022/09/16 05:10:27;;;;;;;5.20;1.35;;;;;;;;;;4787098;29;20068;-68
2022/09/16 05:12:54;;;;;;;3.40;1.35;;;;;;;;;;4786992;29;20065;-68
2022/09/16 05:15:20;;;;;;;4.18;1.58;;;;;;;;;;4787245;30;20041;-68
2022/09/16 05:17:46;;;;;;;1.98;1.20;;;;;;;;;;4787116;30;20512;-68
2022/09/16 05:20:13;;;;;;;1.83;1.25;;;;;;;;;;4786675;30;20459;-68
2022/09/16 05:22:39;;;;;;;1.75;1.33;;;;;;;;;;4787026;30;20031;-68
2022/09/16 05:25:06;;;;;;;4.00;1.40;;;;;;;;;;4785815;30;20043;-68
2022/09/16 05:27:33;;;;;;;4.28;1.63;;;;;;;;;;4788165;29;20455;-68
2022/09/16 05:29:59;;;;;;;3.10;1.52;;;;;;;;;;4790618;29;20092;-68
2022/09/16 05:32:26;;;;;;;4.13;1.60;;;;;;;;;;4789809;29;20045;-68
2022/09/16 05:34:52;;;;;;;4.05;1.00;;;;;;;;;;4790327;30;20401;-68
2022/09/16 05:37:19;;;;;;;2.20;1.25;;;;;;;;;;4790585;29;20471;-68
2022/09/16 05:39:45;;;;;;;3.85;1.40;;;;;;;;;;4789185;29;20042;-68
2022/09/16 05:42:11;;;;;;;2.38;1.60;;;;;;;;;;4790579;30;20400;-67
2022/09/16 05:44:38;;;;;;;4.40;1.40;;;;;;;;;;4790346;30;20069;-68
2022/09/16 05:47:04;;;;;;;1.88;1.20;;;;;;;;;;4790460;30;20508;-68
2022/09/16 05:49:30;;;;;;;2.15;1.40;;;;;;;;;;4789956;30;20037;-68
2022/09/16 05:51:56;;;;;;;5.78;1.67;;;;;;;;;;4790332;30;20039;-68
2022/09/16 05:54:23;;;;;;;6.22;1.55;;;;;;;;;;4790394;30;20518;-68
2022/09/16 05:56:50;;;;;;;4.43;1.83;;;;;;;;;;4789081;30;20459;-68
2022/09/16 05:59:17;;;;;;;8.75;1.67;;;;;;;;;;4790040;29;20031;-68
2022/09/16 06:01:43;;;;;;;6.40;1.92;;;;;;;;;;4790290;29;20087;-68
2022/09/16 06:04:11;;;;;;;3.25;1.50;;;;;;;;;;4789886;30;20035;-68
2022/09/16 06:06:38;;;;;;;6.13;2.10;;;;;;;;;;4790256;30;20040;-67
2022/09/16 06:09:09;;;;;;;3.42;1.58;;;;;;;;;;4790040;30;20034;-67
2022/09/16 06:11:36;;;;;;;4.97;1.50;;;;;;;;;;4790102;30;20387;-67
2022/09/16 06:14:04;;;;;;;14.77;1.70;;;;;;;;;;4789668;30;20056;-67
2022/09/16 06:16:31;;;;;;;7.05;1.70;;;;;;;;;;4789473;29;20028;-67
2022/09/16 06:18:59;;;;;;;8.45;2.00;;;;;;;;;;4788154;29;20068;-67
2022/09/16 06:21:25;;;;;;;3.65;1.75;;;;;;;;;;4793478;29;20034;-67
2022/09/16 06:23:52;;;;;;;6.25;1.77;;;;;;;;;;4803981;29;20178;-67
2022/09/16 06:26:20;;;;;;;5.50;1.80;;;;;;;;;;4789153;29;20035;-68
2022/09/16 06:28:47;;;;;;;3.63;1.63;;;;;;;;;;4788053;30;20497;-68
2022/09/16 06:31:15;;;;;;;7.82;1.60;;;;;;;;;;4788322;30;20035;-69
2022/09/16 06:33:41;;;;;;;6.65;1.80;;;;;;;;;;4789316;29;20034;-70
2022/09/16 06:36:08;;;;;;;4.97;1.92;;;;;;;;;;4785834;29;20081;-70
2022/09/16 06:38:35;;;;;;;3.28;1.77;;;;;;;;;;4792800;29;20033;-69
2022/09/16 06:41:03;;;;;;;4.80;1.70;;;;;;;;;;4784793;29;20087;-69
2022/09/16 06:43:29;;;;;;;3.08;1.75;;;;;;;;;;4788252;30;20042;-69
2022/09/16 06:45:59;;;;;;;3.95;1.80;;;;;;;;;;4790605;29;20039;-69
2022/09/16 06:48:26;;;;;;;3.47;1.87;;;;;;;;;;4793335;29;20042;-69
2022/09/16 06:51:03;;;;;;;5.63;2.22;;;;;;;;;;4795203;29;20564;-69
2022/09/16 06:53:30;;;;;;;6.80;2.00;;;;;;;;;;4798063;29;20447;-70
2022/09/16 06:56:00;;;;;;;5.38;1.90;;;;;;;;;;4794825;29;20087;-68
2022/09/16 06:58:28;;;;;;;2.80;1.75;;;;;;;;;;4796241;29;20515;-69
2022/09/16 07:00:55;;;;;;;4.43;2.05;;;;;;;;;;4787530;29;20041;-70
2022/09/16 07:03:22;;;;;;;4.40;2.10;;;;;;;;;;4793146;29;20047;-69
2022/09/16 07:05:55;;;;;;;6.63;2.00;;;;;;;;;;4796539;29;20065;-73
2022/09/16 07:08:22;;;;;;;4.00;1.90;;;;;;;;;;4794413;29;20023;-75
2022/09/16 07:10:55;;;;;;;7.03;2.90;;;;;;;;;;4797060;29;20041;-72
2022/09/16 07:13:22;;;;;;;3.90;2.17;;;;;;;;;;4794434;29;20535;-70
2022/09/16 07:15:48;;;;;;;5.07;2.70;;;;;;;;;;4796348;29;20034;-72
2022/09/16 07:18:14;;;;;;;5.65;3.22;;;;;;;;;;4795737;29;20035;-75
2022/09/16 07:20:41;;;;;;;6.00;2.40;;;;;;;;;;4784823;29;20401;-72
2022/09/16 07:23:07;;;;;;;6.32;2.42;;;;;;;;;;4784888;30;20034;-71
2022/09/16 07:25:34;;;;;;;7.78;2.70;;;;;;;;;;4786333;30;20045;-73
2022/09/16 07:28:02;;;;;;;6.07;2.65;;;;;;;;;;4787231;30;20042;-73
2022/09/16 07:30:29;;;;;;;6.25;3.03;;;;;;;;;;4769971;29;20031;-73
2022/09/16 07:32:56;;;;;;;5.88;2.75;;;;;;;;;;4792336;29;20148;-72
2022/09/16 07:35:23;;;;;;;10.43;2.75;;;;;;;;;;4801785;29;20394;-72
2022/09/16 07:37:49;;;;;;;9.40;3.22;;;;;;;;;;4789910;29;20042;-73
2022/09/16 07:40:16;;;;;;;7.57;2.92;;;;;;;;;;4797566;29;20041;-76
2022/09/16 07:42:42;;;;;;;5.60;2.80;;;;;;;;;;4804547;29;20027;-71
2022/09/16 07:45:09;;;;;;;6.22;2.72;;;;;;;;;;4803917;29;20046;-74
2022/09/16 07:47:35;;;;;;;9.23;2.75;;;;;;;;;;4804258;29;20031;-70
2022/09/16 07:50:01;;;;;;;8.23;2.60;;;;;;;;;;4794894;29;20042;-70
2022/09/16 07:52:30;;;;;;;3.20;2.20;;;;;;;;;;4804309;29;20045;-69
2022/09/16 07:54:57;;;;;;;6.30;2.15;;;;;;;;;;4799631;29;20031;-68
2022/09/16 07:57:23;;;;;;;8.65;2.22;;;;;;;;;;4785899;30;20413;-69
2022/09/16 07:59:49;;;;;;;32.58;2.38;;;;;;;;;;4784999;30;20031;-68
2022/09/16 08:02:16;;;;;;;27.25;2.15;;;;;;;;;;4786321;30;20282;-68
2022/09/16 08:04:44;;;;;;;12.18;1.75;;;;;;;;;;4786243;30;20045;-69
2022/09/16 08:07:10;;;;;;;9.73;1.70;;;;;;;;;;4785750;30;20046;-69
2022/09/16 08:09:37;;;;;;;5.35;1.83;;;;;;;;;;4784653;30;20035;-68
2022/09/16 08:12:04;;;;;;;1.45;1.33;;;;;;;;;;4785876;30;20043;-70
2022/09/16 08:14:31;;;;;;;8.05;1.70;;;;;;;;;;4785073;29;20043;-70
2022/09/16 08:16:58;;;;;;;1.77;1.38;;;;;;;;;;4785630;30;20079;-70
2022/09/16 08:19:24;;;;;;;3.72;1.40;;;;;;;;;;4785793;30;20019;-71
2022/09/16 08:21:51;;;;;;;11.48;1.58;;;;;;;;;;4785716;29;20039;-68
2022/09/16 08:24:17;;;;;;;4.50;1.75;;;;;;;;;;4785402;30;20501;-70
2022/09/16 08:26:43;;;;;;;4.90;1.40;;;;;;;;;;4783274;29;20054;-70
2022/09/16 08:29:10;;;;;;;5.28;1.70;;;;;;;;;;4785694;29;20500;-69
2022/09/16 08:31:36;;;;;;;14.57;2.10;;;;;;;;;;4785751;29;20038;-70
2022/09/16 08:34:03;;;;;;;10.90;1.88;;;;;;;;;;4785738;29;20139;-70
2022/09/16 08:36:32;;;;;;;3.70;1.63;;;;;;;;;;4785769;30;20027;-69
2022/09/16 08:38:58;;;;;;;3.90;1.60;;;;;;;;;;4785458;30;20035;-69
2022/09/16 08:41:28;;;;;;;7.32;1.92;;;;;;;;;;4785234;30;20023;-69
2022/09/16 08:43:57;;;;;;;8.23;1.95;;;;;;;;;;4785211;30;20035;-65
2022/09/16 08:46:34;;;;;;;5.40;2.13;;;;;;;;;;4785535;30;20550;-66
2022/09/16 08:49:10;;;;;;;5.25;2.03;;;;;;;;;;4786581;29;20045;-67
2022/09/16 08:51:36;;;;;;;6.07;2.20;;;;;;;;;;4787165;29;20042;-67
2022/09/16 08:54:26;;;;;;;6.70;2.10;;;;;;;;;;4803901;29;20038;-68
2022/09/16 08:56:54;;;;;;;3.10;1.95;;;;;;;;;;4788609;29;20048;-68
2022/09/16 08:59:24;;;;;;;6.65;2.20;;;;;;;;;;4785217;30;20039;-67
2022/09/16 09:01:57;;;;;;;2.50;2.17;;;;;;;;;;4784973;30;20042;-67
2022/09/16 09:04:24;;;;;;;5.75;2.30;;;;;;;;;;4783532;29;20394;-67
2022/09/16 09:07:20;;;;;;;2.42;1.98;;;;;;;;;;4785521;29;20043;-66
2022/09/16 09:10:07;;;;;;;5.75;2.00;;;;;;;;;;4802167;29;20033;-67
2022/09/16 09:12:38;;;;;;;3.75;1.95;;;;;;;;;;4805083;29;20054;-67
2022/09/16 09:15:08;;;;;;;3.47;2.13;;;;;;;;;;4800346;29;20042;-67
2022/09/16 09:17:53;;;;;;;4.45;2.13;;;;;;;;;;4800775;29;20023;-67
2022/09/16 09:20:19;;;;;;;4.15;2.30;;;;;;;;;;4803214;29;20027;-68
2022/09/16 09:22:53;;;;;;;4.40;2.58;;;;;;;;;;4803222;29;20120;-67
2022/09/16 09:25:28;;;;;;;4.22;2.47;;;;;;;;;;4802981;29;20099;-69
2022/09/16 09:27:54;;;;;;;5.22;2.60;;;;;;;;;;4802600;29;20031;-68
2022/09/16 09:30:24;;;;;;;4.20;2.92;;;;;;;;;;4803115;29;20039;-67
2022/09/16 09:32:53;;;;;;;2.65;2.45;;;;;;;;;;4792254;29;20023;-69
2022/09/16 09:35:38;;;;;;;3.42;2.58;;;;;;;;;;4785055;29;20035;-68
2022/09/16 09:38:30;;;;;;;5.60;2.88;;;;;;;;;;4785309;30;20027;-68
2022/09/16 09:41:08;;;;;;;5.75;2.70;;;;;;;;;;4763595;30;20613;-68
2022/09/16 09:43:36;;;;;;;6.07;3.38;;;;;;;;;;4764496;30;20456;-67
2022/09/16 09:46:10;;;;;;;5.40;3.38;;;;;;;;;;4780082;30;20055;-66
2022/09/16 09:48:36;;;;;;;3.47;3.15;;;;;;;;;;4782930;29;20067;-68
2022/09/16 09:51:11;;;;;;;4.28;3.03;;;;;;;;;;4768442;30;20046;-68
2022/09/16 09:53:43;;;;;;;8.20;3.45;;;;;;;;;;4781769;30;20035;-69
2022/09/16 09:56:28;;;;;;;6.57;3.55;;;;;;;;;;4776457;29;20020;-69
2022/09/16 09:59:02;;;;;;;4.55;3.47;;;;;;;;;;4764605;30;20562;-68
2022/09/16 10:01:28;;;;;;;4.22;3.30;;;;;;;;;;4764684;30;20423;-69
2022/09/16 10:03:56;;;;;;;5.78;3.30;;;;;;;;;;4763164;30;20043;-69
2022/09/16 10:06:33;;;;;;;5.70;3.20;;;;;;;;;;4764101;30;20073;-69
2022/09/16 10:09:00;;;;;;;6.18;3.13;;;;;;;;;;4765445;30;20046;-69
2022/09/16 10:11:29;;;;;;;7.88;3.63;;;;;;;;;;4758150;30;20056;-69
2022/09/16 10:14:00;;;;;;;3.72;3.10;;;;;;;;;;4771057;30;20058;-69
2022/09/16 10:16:29;;;;;;;3.85;2.97;;;;;;;;;;4776530;30;20054;-69
2022/09/16 10:19:01;;;;;;;3.65;3.35;;;;;;;;;;4793195;29;20036;-69
2022/09/16 10:21:38;;;;;;;5.30;3.33;;;;;;;;;;4795287;29;20050;-68
2022/09/16 10:24:04;;;;;;;3.40;3.10;;;;;;;;;;4795458;29;20027;-69
2022/09/16 10:26:39;;;;;;;5.25;2.85;;;;;;;;;;4795878;29;20050;-69
2022/09/16 10:29:15;;;;;;;4.85;3.10;;;;;;;;;;4796873;29;20067;-68
2022/09/16 10:31:42;;;;;;;4.00;3.15;;;;;;;;;;4795282;29;20056;-69
2022/09/16 10:34:25;;;;;;;6.70;3.08;;;;;;;;;;4795309;29;20517;-67
2022/09/16 10:37:03;;;;;;;5.15;3.05;;;;;;;;;;4794865;29;20493;-69
2022/09/16 10:39:30;;;;;;;4.18;3.05;;;;;;;;;;4794691;29;20501;-69
2022/09/16 10:41:57;;;;;;;3.63;2.55;;;;;;;;;;4796863;29;20031;-68
2022/09/16 10:44:26;;;;;;;5.53;2.50;;;;;;;;;;4796710;29;20043;-69
2022/09/16 10:46:57;;;;;;;5.65;2.80;;;;;;;;;;4778647;29;20034;-69
2022/09/16 10:49:34;;;;;;;3.63;2.88;;;;;;;;;;4796651;29;20039;-69
2022/09/16 10:52:17;;;;;;;4.32;2.53;;;;;;;;;;4794493;29;20028;-69
2022/09/16 10:54:44;;;;;;;4.22;2.63;;;;;;;;;;4795531;29;20031;-69
2022/09/16 10:57:20;;;;;;;4.32;2.40;;;;;;;;;;4795095;29;20520;-69
2022/09/16 10:59:55;;;;;;;7.40;2.65;;;;;;;;;;4795740;29;20022;-69
2022/09/16 11:02:39;;;;;;;3.65;2.33;;;;;;;;;;4795766;29;20079;-68
2022/09/16 11:05:11;;;;;;;2.47;2.22;;;;;;;;;;4795467;29;20440;-69
2022/09/16 11:07:44;;;;;;;3.47;2.38;;;;;;;;;;4793227;29;20494;-69
2022/09/16 11:10:10;;;;;;;4.13;2.10;;;;;;;;;;4795181;29;20035;-69
2022/09/16 11:12:46;;;;;;;2.83;2.10;;;;;;;;;;4792861;29;20062;-68
2022/09/16 11:15:23;;;;;;;3.33;2.10;;;;;;;;;;4795291;29;20041;-69
2022/09/16 11:17:55;;;;;;;3.80;1.98;;;;;;;;;;4796638;29;20047;-69
2022/09/16 11:20:25;;;;;;;3.90;1.90;;;;;;;;;;4795765;29;20500;-69
2022/09/16 11:22:57;;;;;;;4.70;2.07;;;;;;;;;;4794521;29;20038;-68
2022/09/16 11:25:38;;;;;;;7.20;2.35;;;;;;;;;;4793893;29;20287;-69
2022/09/16 11:28:04;;;;;;;3.15;2.00;;;;;;;;;;4794858;29;20034;-69
2022/09/16 11:30:34;;;;;;;4.07;1.83;;;;;;;;;;4793368;29;20035;-69
2022/09/16 11:33:03;;;;;;;6.15;1.67;;;;;;;;;;4796703;29;20058;-69
2022/09/16 11:35:39;;;;;;;5.10;1.60;;;;;;;;;;4794043;29;20077;-69
2022/09/16 11:38:25;;;;;;;2.08;1.85;;;;;;;;;;4788726;29;20033;-69
2022/09/16 11:40:51;;;;;;;5.43;2.05;;;;;;;;;;4795575;29;20482;-69
2022/09/16 11:43:37;;;;;;;4.18;2.08;;;;;;;;;;4795039;29;20046;-68
2022/09/16 11:46:22;;;;;;;3.17;1.90;;;;;;;;;;4794838;29;20150;-67
2022/09/16 11:48:54;;;;;;;3.90;2.00;;;;;;;;;;4794661;29;20035;-67
2022/09/16 11:51:30;;;;;;;2.55;1.90;;;;;;;;;;4792307;29;20027;-67
2022/09/16 11:54:04;;;;;;;4.53;1.80;;;;;;;;;;4791581;29;20041;-68
2022/09/16 11:56:30;;;;;;;3.83;1.88;;;;;;;;;;4795152;29;20523;-69
2022/09/16 11:59:05;;;;;;;2.78;1.90;;;;;;;;;;4795698;29;20023;-69
2022/09/16 12:01:41;;;;;;;4.78;2.00;;;;;;;;;;4795543;29;20035;-69
2022/09/16 12:04:11;;;;;;;7.57;1.75;;;;;;;;;;4794805;29;20034;-68
2022/09/16 12:06:59;;;;;;;3.30;1.65;;;;;;;;;;4790879;29;20039;-71
2022/09/16 12:09:30;;;;;;;4.07;1.83;;;;;;;;;;4789467;29;20031;-67
2022/09/16 12:12:02;;;;;;;8.18;2.03;;;;;;;;;;4791038;29;20030;-67
2022/09/16 12:14:30;;;;;;;9.13;2.13;;;;;;;;;;4789736;29;20513;-67
2022/09/16 12:17:11;;;;;;;2.95;1.58;;;;;;;;;;4790776;29;20038;-67
2022/09/16 12:19:37;;;;;;;;;;;;;;;;;;4795197;29;20037;-68
2022/09/16 12:22:05;;;;;;;3.78;1.90;;;;;;;;;;4791778;29;19969;-69
2022/09/16 12:24:43;;;;;;;3.10;1.98;;;;;;;;;;4790851;29;20209;-69
2022/09/16 12:27:14;;;;;;;2.25;1.80;;;;;;;;;;4799626;29;20039;-68
2022/09/16 12:29:44;;;;;;;3.90;1.85;;;;;;;;;;4790909;29;20041;-68
2022/09/16 12:32:14;;;;;;;4.80;1.85;;;;;;;;;;4797189;29;20031;-68
2022/09/16 12:34:55;;;;;;;2.92;1.65;;;;;;;;;;4784999;30;20485;-69
2022/09/16 12:37:32;;;;;;;2.42;1.83;;;;;;;;;;4784905;29;20041;-68
2022/09/16 12:39:59;;;;;;;1.65;1.48;;;;;;;;;;4785288;30;20035;-69
2022/09/16 12:42:44;;;;;;;2.63;1.70;;;;;;;;;;4790542;29;20417;-68
2022/09/16 12:45:30;;;;;;;1.98;1.67;;;;;;;;;;4785360;29;20057;-67
2022/09/16 12:48:05;;;;;;;2.17;1.70;;;;;;;;;;4786929;29;20031;-68
2022/09/16 12:50:43;;;;;;;4.32;1.40;;;;;;;;;;4788186;29;20035;-68
2022/09/16 12:53:15;;;;;;;3.97;1.88;;;;;;;;;;4787011;29;20042;-68
2022/09/16 12:55:49;;;;;;;3.00;1.70;;;;;;;;;;4784910;30;20037;-67
2022/09/16 12:58:23;;;;;;;4.65;1.60;;;;;;;;;;4786285;29;20516;-67
2022/09/16 13:00:58;;;;;;;1.98;1.40;;;;;;;;;;4784970;30;20416;-67
2022/09/16 13:03:26;;;;;;;3.28;1.73;;;;;;;;;;4785630;29;20026;-68
2022/09/16 13:05:54;;;;;;;4.63;1.52;;;;;;;;;;4802269;29;20505;-67
2022/09/16 13:08:25;;;;;;;4.07;1.45;;;;;;;;;;4794145;29;20034;-68
2022/09/16 13:11:03;;;;;;;4.30;1.58;;;;;;;;;;4790749;29;20540;-68
2022/09/16 13:13:39;;;;;;;5.40;1.70;;;;;;;;;;4784974;30;20053;-69
2022/09/16 13:16:07;;;;;;;6.57;1.65;;;;;;;;;;4784144;29;20032;-69
2022/09/16 13:18:42;;;;;;;1.67;1.50;;;;;;;;;;4789917;29;20026;-68
2022/09/16 13:21:28;;;;;;;6.15;1.55;;;;;;;;;;4794275;29;20097;-68
2022/09/16 13:24:17;;;;;;;3.15;1.35;;;;;;;;;;4799044;29;20043;-68
2022/09/16 13:26:45;;;;;;;2.55;1.35;;;;;;;;;;4802701;29;20081;-68
2022/09/16 13:29:31;;;;;;;3.55;1.20;;;;;;;;;;4787701;29;20061;-68
2022/09/16 13:31:57;;;;;;;2.35;1.50;;;;;;;;;;4784271;29;20036;-68
2022/09/16 13:34:24;;;;;;;1.85;1.60;;;;;;;;;;4784281;30;20032;-68
2022/09/16 13:36:50;;;;;;;4.40;1.40;;;;;;;;;;4785505;29;20059;-68
2022/09/16 13:39:28;;;;;;;2.35;1.70;;;;;;;;;;4784843;30;20515;-68
2022/09/16 13:41:54;;;;;;;2.40;1.50;;;;;;;;;;4782681;29;20039;-68
2022/09/16 13:44:44;;;;;;;4.28;1.58;;;;;;;;;;4803235;29;20039;-68
2022/09/16 13:47:13;;;;;;;1.42;1.30;;;;;;;;;;4804728;29;20054;-69
2022/09/16 13:49:44;;;;;;;2.28;1.50;;;;;;;;;;4798119;29;20035;-69
2022/09/16 13:52:12;;;;;;;3.92;1.67;;;;;;;;;;4789087;30;20047;-69
2022/09/16 13:54:42;;;;;;;4.35;1.40;;;;;;;;;;4788745;30;20038;-68
2022/09/16 13:57:18;;;;;;;1.60;1.38;;;;;;;;;;4788289;30;20527;-69
2022/09/16 13:59:45;;;;;;;3.40;1.50;;;;;;;;;;4788549;30;20051;-69
2022/09/16 14:02:11;;;;;;;1.75;1.30;;;;;;;;;;4787645;30;20043;-69
2022/09/16 14:04:50;;;;;;;3.47;1.40;;;;;;;;;;4786187;29;20053;-67
2022/09/16 14:07:27;;;;;;;2.38;1.40;;;;;;;;;;4788186;30;20054;-69
2022/09/16 14:09:54;;;;;;;2.90;1.67;;;;;;;;;;4786692;29;20019;-68
2022/09/16 14:12:20;;;;;;;2.65;1.60;;;;;;;;;;4788031;29;20057;-68
2022/09/16 14:14:46;;;;;;;3.97;1.52;;;;;;;;;;4786570;30;20043;-69
2022/09/16 14:17:21;;;;;;;5.68;1.83;;;;;;;;;;4804815;29;20034;-69
2022/09/16 14:19:49;;;;;;;1.48;1.38;;;;;;;;;;4806646;29;20038;-68
2022/09/16 14:22:17;;;;;;;1.75;1.30;;;;;;;;;;4789683;29;20401;-69
2022/09/16 14:24:45;;;;;;;2.75;1.40;;;;;;;;;;4795123;29;20035;-69
2022/09/16 14:27:20;;;;;;;2.15;1.30;;;;;;;;;;4806220;29;20046;-69
2022/09/16 14:29:55;;;;;;;3.75;1.58;;;;;;;;;;4791263;29;20042;-69
2022/09/16 14:32:24;;;;;;;5.40;1.48;;;;;;;;;;4787852;29;20050;-69
2022/09/16 14:34:51;;;;;;;3.22;1.48;;;;;;;;;;4789473;29;20050;-69
2022/09/16 14:37:18;;;;;;;1.95;1.40;;;;;;;;;;4795296;29;20493;-69
2022/09/16 14:39:46;;;;;;;4.07;1.50;;;;;;;;;;4787744;30;20455;-69
2022/09/16 14:42:17;;;;;;;4.60;1.67;;;;;;;;;;4788253;30;20042;-69
2022/09/16 14:44:48;;;;;;;2.78;1.40;;;;;;;;;;4787574;29;20016;-69
2022/09/16 14:47:27;;;;;;;1.48;1.38;;;;;;;;;;4798824;29;20408;-69
2022/09/16 14:50:04;;;;;;;2.47;1.10;;;;;;;;;;4805555;29;20033;-69
2022/09/16 14:52:33;;;;;;;3.72;1.42;;;;;;;;;;4787880;30;20047;-69
2022/09/16 14:54:59;;;;;;;1.33;1.23;;;;;;;;;;4788154;29;20027;-69
2022/09/16 14:57:28;;;;;;;3.08;1.30;;;;;;;;;;4788120;29;20417;-68
2022/09/16 14:59:58;;;;;;;2.65;1.70;;;;;;;;;;4786870;29;20019;-69
2022/09/16 15:02:37;;;;;;;3.00;1.70;;;;;;;;;;4791333;29;20397;-69
2022/09/16 15:05:06;;;;;;;1.75;1.50;;;;;;;;;;4805777;29;20034;-69